Kezdőlap
METAR-TAF:

METAR-TAF

Repülőterek :

Cristiano Ronaldo nemzetközi repülőtér

Funchal, Madeira, Portugália

földrajzi szélesség: 32-41-52N, földrajzi hosszúság: 016-46-28W, magasság: 59 m

Jelenlegi meteorológiai megfigyelések

A jelentés 39 perccel ezelõtt készült, 03:30 UTC
Északi szél 7 kt
Hőmérséklet 20°C
Páratartalom 64%
Légköri nyomás 1020 hPa
Látótávolság 10 km, vagy több
Szórványos felhőzet 1600 lábon

METAR: LPMA 190330Z 36007KT 9999 SCT016 20/13 Q1020

Idő: 05:09 (04:09 UTC)

Előrejelzés

A jelentés 5 órával és 9 perccel ezelõtt készült, 23:00 UTC
Az előrejelzés 19-én 00 óra UTC és 19-én 24 óra UTC között érvényes
Északi szél 10 kt
Látótávolság 10 km, vagy több
Szórványos felhőzet 1600 lábon
19-én 00 óra UTC és 19-én 12 óra UTC között ideiglenes
Szakadozott felhőzet 1500 lábon

TAF: LPMA 182300Z 1900/1924 01010KT 9999 SCT016 TEMPO 1900/1912 BKN015

Meteorológiai megfigyelések és előrejelzések több, mint 4000 repülőtéren (METAR és TAF jelentéseket).

A térképen piros és sárga pontok jelzik az elérhető meteorológiai állomásokat.

Mozgassa az egeret a pont fölött, hogy megjelenjen az állomás neve.

Azután kattintson az időjárási megfigyelések és előrejelzések megtekintéséhez.

A térkép megváltoztatása: kattintson a fekete keresztel jelölt zöld gombra ráközelítéshez, a vonallal jelölt zöld gombra távolításhoz, vagy a zöld nyilakra a szomszédos térképek eléréséhez.


METAR-TAF: